AirNav   Everest Fuels
 
 782 users online  

05VT Port of Highgate Springs Heliport
Highgate Springs, Vermont, USA

GOING TO HIGHGATE SPRINGS?


FAA INFORMATION EFFECTIVE 20 MAY 2021

Location

FAA Identifier: 05VT
Lat/Long: 45-00-48.0000N 073-05-12.0000W
45-00.800000N 073-05.200000W
45.0133333,-73.0866667
(estimated)
Elevation: 68 ft. / 21 m (estimated)
From city: 2 miles NE of HIGHGATE SPRINGS, VT
Time zone: UTC -4 (UTC -5 during Standard Time)
Zip code: 05488

Heliport Operations

Heliport use: Private use. Permission required prior to landing
Activation date: 10/2003
Control tower: no
ARTCC: BOSTON CENTER
FSS: BURLINGTON FLIGHT SERVICE STATION
Attendance: UNATNDD
Wind indicator: yes
Segmented circle: no

Heliport Communications

WX AWOS-3 at FSO (4 nm S): 119.025 (802-868-9941)

Nearby radio navigation aids

VOR radial/distance  VOR name  Freq  Var
YJNr162/17.6ST JEAN VOR/DME115.8016W
BTVr021/37.2BURLINGTON VOR/DME117.5015W

Heliport Services

Runway Information

Helipad H1

Dimensions: 80 x 80 ft. / 24 x 24 m
Surface: concrete
Traffic pattern: leftleft

Heliport Ownership and Management from official FAA records

Ownership: Privately-owned
Owner: US CUSTOMS AND BORDER PROTECTION
480 WELCOME CENTER ROAD
SWANTON, VT 05488
Phone 802-868-2778
Manager: MATTHEW HLADIK
480 WELCOME CENTER ROAD
SWANTON, VT 05488
Phone 802-868-2778
POC - GILLES HARDY SCBPO CARGO PILLES.I.HARDY@CBP.DHS.GOV

Additional Remarks

A52-H1 NUMEROUS OBSTRUCTING BUILDING & POLES ALL QUADRANTS.
FOR CD CTC BURLINGTON APCH AT 802-657-4401, WHEN APCH CLSD CTC BOSTON ARTCC AT 603-879-6859.

Instrument Procedures

There are no published instrument procedures at 05VT.

Some nearby airports with instrument procedures:

KFSO - Franklin County State Airport (4 nm S)
KPBG - Plattsburgh International Airport (27 nm SW)
KBTV - Burlington International Airport (33 nm S)
KMVL - Morrisville-Stowe State Airport (35 nm SE)
KEFK - Northeast Kingdom International Airport (37 nm E)
 
Loc | Ops | Rwys | IFR | FBO | Links
Com | Nav | Svcs | Stats | Notes
Area around 05VT (Port of Highgate Springs Heliport)
 
Road maps at: MapQuest Bing Google
 
Aerial photo
No photo
 
Sectional chart

 
Airport distance calculator
Flying to Port of Highgate Springs Heliport? Find the distance to fly.

From to 05VT

Sunrise and sunset
Times for 12-Jun-2021
 Local
(UTC-4)
 Zulu
(UTC)
Morning civil twilight04:2908:29
Sunrise05:0609:06
Sunset20:3800:38
Evening civil twilight21:1501:15

Current date and time
Zulu (UTC)  13-Jun-2021 03:15:54
Local (UTC-4)  12-Jun-2021 23:15:54
 
METAR
KFSO 
4nm S 
130255Z AUTO 00000KT 10SM CLR 16/08 A2983 RMK AO2 T01560077
CWFQ 
12nm E 
130200Z AUTO 22002KT 18/04 RMK AO1 SLP100 T01820035 53005
CWIZ 
19nm NW 
130200Z AUTO 26002KT 20/06 RMK AO1 T02040056
TAF
KPBG 
27nm SW 
121656Z 1217/1312 VRB05KT P6SM SCT200
KBTV 
33nm S 
121656Z 1217/1312 32005KT P6SM FEW050 SCT250
CYHU 
33nm NW 
121738Z 1218/1318 VRB03KT P6SM FEW070 BECMG 1219/1221 24010KT FM130100 31005KT P6SM BKN240 FM130900 02007KT P6SM BKN240 FM131700 14009KT P6SM BKN150 RMK FCST BASED ON AUTO OBS. NXT FCST BY 130000Z
NOTAMs
Click for the latest NOTAMs
NOTAMs are issued by the DoD/FAA and will open in a separate window not controlled by AirNav.

 

 
 

Would you like to see your business listed on this page?

 If your business provides an interesting product or service to pilots, flight crews, aircraft, or users of the Port of Highgate Springs Heliport, you should consider listing it here.  To start the listing process, click on the button below
 
Add a business
 

Other Pages about Port of Highgate Springs Heliport

Update a link
 
Copyright © AirNav, LLC. All rights reserved. Privacy Policy  Contact